Time;durP1;ratioP1;P1;durP2;ratioP2;P2;SDS_P1;SDS_P2;PMS_P1;PMS_P2;Temp;Humidity;BMP_temperature;BMP_pressure;BME280_temperature;BME280_humidity;BME280_pressure;Samples;Min_cycle;Max_cycle;Signal;HPM_P1;HPM_P2
2022/01/13 09:55:15;;;;;;;92.07;30.98;;;;;;;1.70;100.00;104070.38;5103218;27;20406;-69
2022/01/13 09:57:49;;;;;;;96.00;28.00;;;;;;;1.75;100.00;104068.75;5092956;28;20107;-69
2022/01/13 10:00:19;;;;;;;63.55;29.17;;;;;;;1.76;100.00;104055.66;5089170;28;20028;-69
2022/01/13 10:02:45;;;;;;;67.60;29.83;;;;;;;1.89;100.00;104066.50;5088125;28;20070;-69
2022/01/13 10:05:11;;;;;;;81.80;27.20;;;;;;;1.87;100.00;104069.06;5092347;28;20383;-69
2022/01/13 10:07:41;;;;;;;105.97;28.88;;;;;;;1.88;100.00;104067.31;5097090;28;20084;-69
2022/01/13 10:10:10;;;;;;;90.45;26.73;;;;;;;1.94;100.00;104072.72;5087252;28;20475;-69
2022/01/13 10:12:37;;;;;;;71.43;27.58;;;;;;;1.96;99.88;104066.66;5087079;28;20487;-68
2022/01/13 10:17:47;;;;;;;70.32;28.52;;;;;;;1.97;99.83;104071.09;5101205;28;20166;-69
2022/01/13 10:20:16;;;;;;;;;;;;;;;2.16;99.22;104067.16;5093975;28;20078;-69
2022/01/13 10:22:42;;;;;;;67.65;27.40;;;;;;;2.02;99.27;104069.44;5086914;28;19924;-69
2022/01/13 10:25:33;;;;;;;71.57;27.87;;;;;;;2.11;99.70;104066.16;5089274;28;20017;-69
2022/01/13 10:28:19;;;;;;;82.33;27.17;;;;;;;2.12;99.59;104064.41;5087684;28;20034;-69
2022/01/13 10:30:47;;;;;;;92.63;27.07;;;;;;;2.05;98.94;104063.38;5087343;28;20505;-68
2022/01/13 10:33:26;;;;;;;79.63;28.13;;;;;;;2.04;99.43;104064.25;5087204;28;20382;-69
2022/01/13 10:36:04;;;;;;;84.83;27.37;;;;;;;1.87;99.03;104047.19;5088174;28;20028;-69
2022/01/13 10:38:49;;;;;;;74.22;26.70;;;;;;;2.07;98.82;104077.44;5099835;28;20031;-69
2022/01/13 10:41:48;;;;;;;62.63;26.80;;;;;;;2.04;99.10;104078.25;5104634;28;20028;-69
2022/01/13 10:44:26;;;;;;;60.23;27.67;;;;;;;2.07;99.29;104081.81;5096664;28;20024;-68
2022/01/13 10:46:58;;;;;;;84.63;25.70;;;;;;;2.08;99.04;104073.97;5100493;28;20106;-69
2022/01/13 10:49:50;;;;;;;80.13;27.07;;;;;;;2.12;99.15;104072.28;5105627;28;20028;-69
2022/01/13 10:52:26;;;;;;;73.40;26.60;;;;;;;2.08;99.15;104067.81;5083721;28;20127;-68
2022/01/13 10:55:13;;;;;;;80.97;28.00;;;;;;;2.10;99.28;104067.00;5086552;28;20055;-69
2022/01/13 10:57:42;;;;;;;77.77;26.20;;;;;;;2.09;98.82;104070.50;5085606;28;20032;-69
2022/01/13 11:00:32;;;;;;;72.17;25.93;;;;;;;2.10;99.13;104063.50;5087408;28;20032;-69
2022/01/13 11:03:01;;;;;;;86.43;26.65;;;;;;;2.03;99.01;104049.34;5085483;28;20471;-69
2022/01/13 11:05:29;;;;;;;74.27;22.50;;;;;;;2.10;98.55;104055.63;5079488;28;20021;-69
2022/01/13 11:07:57;;;;;;;78.37;24.57;;;;;;;2.05;98.24;104048.50;5072091;28;20082;-69
2022/01/13 11:10:23;;;;;;;57.47;24.67;;;;;;;2.02;98.73;104044.94;5073262;28;20059;-69
2022/01/13 11:12:56;;;;;;;69.53;25.17;;;;;;;2.02;99.01;104045.81;5071352;28;20059;-68
2022/01/13 11:15:23;;;;;;;73.18;25.77;;;;;;;2.03;99.03;104047.59;5070953;28;20036;-69
2022/01/13 11:17:49;;;;;;;59.03;26.58;;;;;;;2.07;99.08;104034.56;5075852;28;20067;-69
2022/01/13 11:20:19;;;;;;;70.68;26.52;;;;;;;2.08;98.57;104039.81;5092494;28;20096;-69
2022/01/13 11:22:47;;;;;;;68.75;25.73;;;;;;;2.06;98.75;104033.69;5080101;28;20051;-68
2022/01/13 11:25:17;;;;;;;70.28;27.45;;;;;;;2.07;99.12;104027.56;5073117;28;20154;-69
2022/01/13 11:27:44;;;;;;;63.15;26.77;;;;;;;2.11;98.96;104033.75;5072489;28;20569;-69
2022/01/13 11:30:16;;;;;;;75.90;26.60;;;;;;;2.10;99.35;104029.38;5072560;28;20111;-68
2022/01/13 11:32:43;;;;;;;81.70;28.03;;;;;;;2.13;98.97;104022.44;5073056;28;20024;-69
2022/01/13 11:35:15;;;;;;;68.93;26.65;;;;;;;2.09;98.94;104012.75;5071561;28;20025;-68
2022/01/13 11:37:42;;;;;;;71.50;25.30;;;;;;;2.32;97.68;104021.13;5072727;28;20035;-69
2022/01/13 11:40:27;;;;;;;60.58;26.23;;;;;;;2.24;98.72;104014.84;5055311;28;20028;-69
2022/01/13 11:43:00;;;;;;;67.13;26.85;;;;;;;2.27;98.85;104013.16;5082014;28;20044;-69
2022/01/13 11:45:27;;;;;;;80.27;26.83;;;;;;;2.23;98.17;104026.16;5071788;28;20036;-69
2022/01/13 11:48:26;;;;;;;79.97;28.55;;;;;;;2.30;98.89;104025.47;5076992;28;20099;-68
2022/01/13 11:51:15;;;;;;;68.50;27.40;;;;;;;2.26;98.87;104026.25;5075135;28;20036;-69
2022/01/13 11:54:04;;;;;;;75.10;27.13;;;;;;;2.27;98.49;104028.03;5076280;28;20044;-68
2022/01/13 11:56:30;;;;;;;72.65;24.10;;;;;;;2.27;98.38;104022.78;5074908;28;20028;-68
2022/01/13 11:58:56;;;;;;;100.30;25.20;;;;;;;2.25;98.29;104019.22;5074074;28;20032;-69
2022/01/13 12:01:30;;;;;;;68.05;26.67;;;;;;;2.31;97.39;104019.38;5073099;28;20427;-69
2022/01/13 12:04:01;;;;;;;68.63;26.40;;;;;;;2.26;98.66;104015.75;5082647;28;20060;-69
2022/01/13 12:06:43;;;;;;;68.32;26.50;;;;;;;2.31;98.49;104013.22;5075684;28;20028;-68
2022/01/13 12:09:12;;;;;;;57.63;26.85;;;;;;;2.33;98.82;104001.91;5078531;28;20027;-69
2022/01/13 12:11:54;;;;;;;75.13;25.65;;;;;;;2.33;98.37;103999.28;5083498;28;20027;-69
2022/01/13 12:14:33;;;;;;;67.30;27.95;;;;;;;2.43;98.50;104003.88;5073388;28;20024;-68
2022/01/13 12:17:11;;;;;;;72.00;27.15;;;;;;;2.35;98.65;103997.56;5076127;28;20724;-69
2022/01/13 12:19:45;;;;;;;62.38;27.17;;;;;;;2.41;99.55;103989.84;5080322;28;20618;-69
2022/01/13 12:22:30;;;;;;;65.00;27.57;;;;;;;2.50;99.31;103995.28;5073658;28;20024;-69
2022/01/13 12:24:59;;;;;;;61.83;27.90;;;;;;;2.58;99.40;103997.19;5076976;28;20053;-68
2022/01/13 12:27:39;;;;;;;63.03;27.20;;;;;;;2.59;99.47;103991.06;5073429;28;20142;-69
2022/01/13 12:30:12;;;;;;;68.55;27.98;;;;;;;2.57;98.95;103993.66;5078185;28;20036;-69
2022/01/13 12:32:49;;;;;;;56.13;27.00;;;;;;;2.59;98.83;103985.81;5071172;28;20509;-69
2022/01/13 12:35:21;;;;;;;63.10;27.55;;;;;;;2.68;98.75;103991.28;5069952;28;20036;-69
2022/01/13 12:37:59;;;;;;;72.47;27.92;;;;;;;2.62;99.23;103973.63;5070529;28;20115;-68
2022/01/13 12:40:25;;;;;;;86.10;29.13;;;;;;;2.65;98.72;103984.22;5068821;28;20111;-69
2022/01/13 12:42:53;;;;;;;72.63;28.70;;;;;;;2.65;98.83;103973.69;5071446;28;20032;-68
2022/01/13 12:45:28;;;;;;;69.60;28.83;;;;;;;2.69;98.95;103969.38;5070075;28;20067;-69
2022/01/13 12:48:01;;;;;;;75.97;29.02;;;;;;;2.70;99.07;103955.38;5071311;28;20086;-68
2022/01/13 12:50:36;;;;;;;64.22;29.73;;;;;;;2.77;99.23;103956.41;5071865;28;20390;-69
2022/01/13 12:53:20;;;;;;;80.18;29.85;;;;;;;2.77;99.29;103951.16;5070385;28;20298;-68
2022/01/13 12:55:53;;;;;;;62.33;29.50;;;;;;;2.83;99.17;103951.28;5068548;28;20024;-68
2022/01/13 12:58:24;;;;;;;61.67;29.05;;;;;;;2.81;99.15;103942.47;5069563;28;20180;-68
2022/01/13 13:00:50;;;;;;;59.03;28.02;;;;;;;2.87;99.03;103942.56;5071345;28;20036;-69
2022/01/13 13:03:19;;;;;;;74.75;28.55;;;;;;;2.89;98.66;103940.88;5071277;28;20025;-68
2022/01/13 13:05:47;;;;;;;73.87;30.73;;;;;;;2.84;98.31;103932.88;5070868;28;20107;-68
2022/01/13 13:08:18;;;;;;;76.38;30.52;;;;;;;2.82;98.79;103938.97;5068996;28;20037;-68
2022/01/13 13:10:55;;;;;;;68.30;31.45;;;;;;;2.89;99.02;103941.75;5071763;28;20032;-69
2022/01/13 13:13:24;;;;;;;77.18;30.88;;;;;;;2.91;99.57;103942.69;5070608;28;20029;-68
2022/01/13 13:15:53;;;;;;;72.80;30.30;;;;;;;2.90;98.57;103947.91;5070696;28;20029;-68
2022/01/13 13:18:22;;;;;;;70.35;31.83;;;;;;;2.92;98.81;103943.56;5070279;28;20107;-68
2022/01/13 13:20:48;;;;;;;71.60;31.63;;;;;;;2.92;99.06;103949.69;5071826;28;20019;-69
2022/01/13 13:23:17;;;;;;;68.65;32.42;;;;;;;2.93;98.79;103940.06;5072045;28;20028;-68
2022/01/13 13:25:47;;;;;;;80.63;31.30;;;;;;;2.88;99.06;103939.06;5071632;28;20046;-68
2022/01/13 13:28:19;;;;;;;76.05;32.25;;;;;;;2.84;99.73;103930.25;5070187;28;20036;-68
2022/01/13 13:30:50;;;;;;;81.70;30.10;;;;;;;2.93;98.97;103943.56;5071816;28;20021;-68
2022/01/13 13:33:18;;;;;;;98.32;30.75;;;;;;;2.94;98.66;103937.47;5071247;28;20040;-68
2022/01/13 13:35:45;;;;;;;80.53;30.38;;;;;;;2.78;98.98;103924.88;5071827;28;20277;-68
2022/01/13 13:38:13;;;;;;;72.63;31.05;;;;;;;2.87;99.72;103937.31;5071715;28;20103;-68
2022/01/13 13:40:47;;;;;;;69.47;30.65;;;;;;;2.91;99.72;103932.16;5071585;28;20379;-68
2022/01/13 13:43:12;;;;;;;80.22;32.38;;;;;;;2.96;99.23;103932.22;5071755;28;20112;-68
2022/01/13 13:45:38;;;;;;;78.60;32.40;;;;;;;2.92;99.33;103928.66;5070106;28;20104;-68
2022/01/13 13:48:04;;;;;;;96.57;30.70;;;;;;;2.92;99.44;103936.56;5070002;28;20475;-68
2022/01/13 13:50:32;;;;;;;116.55;32.03;;;;;;;2.90;99.34;103926.88;5070917;28;20107;-68
2022/01/13 13:53:24;;;;;;;83.88;31.25;;;;;;;2.95;99.91;103936.59;5086351;28;20039;-68
2022/01/13 13:56:00;;;;;;;71.72;31.63;;;;;;;2.93;99.92;103926.91;5070208;28;20060;-68
2022/01/13 13:58:25;;;;;;;101.65;32.85;;;;;;;2.96;99.26;103919.09;5071135;28;20036;-68
2022/01/13 14:01:06;;;;;;;70.60;32.20;;;;;;;3.00;100.00;103915.69;5069671;28;20402;-68
2022/01/13 14:03:44;;;;;;;89.63;31.90;;;;;;;2.96;99.94;103906.81;5071181;28;20024;-68
2022/01/13 14:06:36;;;;;;;103.88;31.95;;;;;;;2.99;99.80;103907.75;5071493;28;20052;-68
2022/01/13 14:09:02;;;;;;;72.32;31.83;;;;;;;2.99;99.52;103906.00;5071258;28;20050;-68
2022/01/13 14:11:42;;;;;;;87.53;33.20;;;;;;;2.81;100.00;103884.66;5071368;28;20634;-68
2022/01/13 14:14:09;;;;;;;118.18;34.05;;;;;;;2.92;99.70;103901.50;5070920;28;20082;-67
2022/01/13 14:16:36;;;;;;;98.93;31.85;;;;;;;2.92;99.67;103896.25;5069914;28;20472;-68
2022/01/13 14:19:09;;;;;;;76.78;31.80;;;;;;;2.88;99.45;103889.13;5070126;28;20032;-68
2022/01/13 14:21:49;;;;;;;100.32;32.40;;;;;;;2.99;99.44;103894.59;5071391;28;20082;-67
2022/01/13 14:24:36;;;;;;;76.93;33.92;;;;;;;2.88;99.94;103884.78;5070884;28;20658;-67
2022/01/13 14:27:23;;;;;;;118.53;32.95;;;;;;;2.95;99.58;103896.28;5070947;28;20021;-67
2022/01/13 14:29:53;;;;;;;127.28;31.77;;;;;;;2.82;100.00;103876.75;5069763;28;20059;-68
2022/01/13 14:32:24;;;;;;;127.00;35.13;;;;;;;2.83;100.00;103877.69;5070231;28;20078;-67
2022/01/13 14:34:55;;;;;;;116.03;30.98;;;;;;;2.88;100.00;103890.06;5070928;28;20066;-67
2022/01/13 14:37:24;;;;;;;101.67;32.70;;;;;;;2.85;100.00;103895.22;5071050;28;20035;-67
2022/01/13 14:40:11;;;;;;;71.37;32.87;;;;;;;2.87;100.00;103890.88;5071472;28;20031;-67
2022/01/13 14:42:38;;;;;;;80.60;33.42;;;;;;;2.87;100.00;103890.00;5075079;28;20024;-67
2022/01/13 14:45:25;;;;;;;82.17;32.07;;;;;;;2.94;100.00;103889.25;5073044;28;20028;-67
2022/01/13 14:47:51;;;;;;;75.43;32.08;;;;;;;2.82;100.00;103868.88;5074857;28;20024;-67
2022/01/13 14:50:17;;;;;;;73.77;33.67;;;;;;;2.89;100.00;103880.41;5077335;28;20028;-67
2022/01/13 14:52:52;;;;;;;88.45;33.42;;;;;;;2.90;100.00;103887.44;5078232;28;20832;-67
2022/01/13 14:55:19;;;;;;;90.40;33.03;;;;;;;2.93;100.00;103890.13;5072086;28;20499;-67
2022/01/13 14:57:47;;;;;;;92.80;34.38;;;;;;;2.92;100.00;103888.34;5078709;28;20028;-68
2022/01/13 15:00:14;;;;;;;94.03;32.45;;;;;;;2.90;100.00;103887.44;5072298;28;20769;-67
2022/01/13 15:02:48;;;;;;;111.55;31.27;;;;;;;2.89;100.00;103894.44;5073528;28;20024;-68
2022/01/13 15:05:14;;;;;;;69.57;30.00;;;;;;;2.81;100.00;103869.75;5073096;28;20484;-67
2022/01/13 15:07:39;;;;;;;66.40;31.07;;;;;;;2.93;100.00;103880.47;5074196;28;20099;-67
2022/01/13 15:10:05;;;;;;;68.07;30.63;;;;;;;2.96;100.00;103875.28;5073162;28;20108;-67
2022/01/13 15:12:30;;;;;;;72.70;31.63;;;;;;;2.95;100.00;103867.38;5079346;28;20035;-67
2022/01/13 15:14:56;;;;;;;75.33;31.33;;;;;;;3.02;100.00;103858.72;5072558;28;20044;-67
2022/01/13 15:17:21;;;;;;;104.38;30.38;;;;;;;3.02;100.00;103871.00;5071467;28;20432;-67
2022/01/13 15:19:49;;;;;;;74.03;29.95;;;;;;;3.02;100.00;103863.97;5078716;28;20031;-67
2022/01/13 15:22:15;;;;;;;104.07;27.60;;;;;;;3.02;100.00;103858.72;5078798;28;20035;-67
2022/01/13 15:24:42;;;;;;;94.32;28.38;;;;;;;3.02;100.00;103860.47;5068825;28;20112;-68
2022/01/13 15:27:10;;;;;;;87.20;28.15;;;;;;;2.99;100.00;103861.31;5075487;28;20021;-68
2022/01/13 15:29:35;;;;;;;73.80;27.23;;;;;;;3.00;100.00;103867.44;5071866;28;20082;-68
2022/01/13 15:32:01;;;;;;;77.38;26.58;;;;;;;2.94;100.00;103861.25;5081773;28;20510;-68
2022/01/13 15:34:26;;;;;;;70.00;25.77;;;;;;;2.94;100.00;103862.97;5080528;28;20036;-68
2022/01/13 15:36:52;;;;;;;72.85;27.67;;;;;;;2.95;100.00;103864.75;5069243;28;20418;-68
2022/01/13 15:39:18;;;;;;;78.57;28.35;;;;;;;2.98;100.00;103863.91;5073359;28;20028;-68
2022/01/13 15:41:44;;;;;;;79.93;27.80;;;;;;;2.98;100.00;103856.03;5073196;28;20107;-68
2022/01/13 15:44:10;;;;;;;84.20;27.05;;;;;;;2.98;100.00;103859.53;5081687;28;20029;-67
2022/01/13 15:46:35;;;;;;;72.32;25.65;;;;;;;2.98;100.00;103854.28;5080207;28;20034;-68
2022/01/13 15:49:00;;;;;;;59.47;25.58;;;;;;;3.00;100.00;103865.72;5076668;28;20048;-67
2022/01/13 15:51:26;;;;;;;67.25;26.13;;;;;;;2.99;100.00;103860.41;5079364;28;20033;-67
2022/01/13 15:53:52;;;;;;;73.07;27.02;;;;;;;2.95;100.00;103856.88;5081734;28;20068;-67
2022/01/13 15:56:20;;;;;;;62.35;25.80;;;;;;;3.02;100.00;103865.72;5082466;28;20466;-67
2022/01/13 15:58:47;;;;;;;68.82;26.27;;;;;;;3.00;100.00;103863.09;5079113;28;20114;-67
2022/01/13 16:01:13;;;;;;;87.82;29.27;;;;;;;3.03;100.00;103860.53;5079680;28;20031;-67
2022/01/13 16:03:39;;;;;;;69.78;28.10;;;;;;;3.01;100.00;103864.84;5073963;28;20021;-67
2022/01/13 16:06:04;;;;;;;78.47;28.33;;;;;;;3.00;100.00;103870.97;5079958;28;20025;-67
2022/01/13 16:08:30;;;;;;;95.30;28.73;;;;;;;3.02;100.00;103871.00;5082377;28;20024;-67
2022/01/13 16:10:56;;;;;;;103.63;28.58;;;;;;;3.02;100.00;103876.25;5074738;28;20479;-67
2022/01/13 16:13:21;;;;;;;71.35;28.52;;;;;;;2.99;100.00;103871.81;5075572;28;20039;-68
2022/01/13 16:15:47;;;;;;;96.53;29.58;;;;;;;3.01;100.00;103871.88;5075626;28;20111;-68
2022/01/13 16:18:16;;;;;;;69.20;29.60;;;;;;;3.06;100.00;103878.06;5074580;28;20034;-68
2022/01/13 16:20:42;;;;;;;91.57;29.17;;;;;;;3.04;100.00;103883.31;5083423;28;20043;-68
2022/01/13 16:23:07;;;;;;;65.43;30.70;;;;;;;3.07;100.00;103887.75;5069912;28;20403;-68
2022/01/13 16:25:33;;;;;;;73.32;30.15;;;;;;;3.06;100.00;103885.94;5071640;28;20060;-68
2022/01/13 16:27:59;;;;;;;71.22;31.00;;;;;;;3.09;100.00;103886.91;5071207;28;20028;-67
2022/01/13 16:30:25;;;;;;;78.47;33.03;;;;;;;3.08;100.00;103890.38;5079068;28;20032;-67
2022/01/13 16:32:53;;;;;;;71.32;32.42;;;;;;;3.10;100.00;103886.03;5090077;28;20391;-67
2022/01/13 16:35:28;;;;;;;68.03;29.75;;;;;;;3.05;100.00;103882.44;5070212;28;20020;-68
2022/01/13 16:37:57;;;;;;;65.93;29.02;;;;;;;3.04;100.00;103891.19;5071284;28;20048;-69
2022/01/13 16:40:33;;;;;;;67.72;29.27;;;;;;;3.03;100.00;103885.91;5071650;28;20060;-68
2022/01/13 16:43:04;;;;;;;98.75;30.58;;;;;;;3.02;100.00;103882.38;5070333;28;20028;-67
2022/01/13 16:45:37;;;;;;;95.72;31.25;;;;;;;3.07;100.00;103882.47;5069892;28;20055;-67
2022/01/13 16:48:07;;;;;;;74.53;30.83;;;;;;;3.05;100.00;103885.06;5067953;28;20029;-68
2022/01/13 16:50:33;;;;;;;85.45;30.17;;;;;;;3.04;100.00;103882.44;5071767;28;20024;-67
2022/01/13 16:53:03;;;;;;;87.60;30.30;;;;;;;3.06;100.00;103880.69;5071776;28;20056;-67
2022/01/13 16:55:29;;;;;;;77.22;31.45;;;;;;;3.05;100.00;103878.94;5069756;28;20075;-68
2022/01/13 16:57:57;;;;;;;84.50;32.72;;;;;;;3.06;100.00;103878.97;5071135;28;20090;-69
2022/01/13 17:00:24;;;;;;;73.32;32.83;;;;;;;3.06;100.00;103878.97;5070493;28;20036;-67
2022/01/13 17:02:53;;;;;;;82.23;32.03;;;;;;;3.07;100.00;103877.22;5070756;28;20028;-68
2022/01/13 17:05:19;;;;;;;72.03;31.15;;;;;;;3.06;100.00;103878.06;5071515;28;20422;-68
2022/01/13 17:07:46;;;;;;;85.13;30.80;;;;;;;3.06;100.00;103881.59;5070232;28;20135;-68
2022/01/13 17:10:12;;;;;;;82.30;31.73;;;;;;;3.07;100.00;103879.84;5069800;28;20020;-68
2022/01/13 17:12:40;;;;;;;62.83;29.33;;;;;;;3.11;100.00;103879.91;5070992;28;20031;-68
2022/01/13 17:15:07;;;;;;;73.90;32.65;;;;;;;3.07;100.00;103875.47;5068480;28;20028;-68
2022/01/13 17:17:33;;;;;;;63.65;30.88;;;;;;;3.10;100.00;103879.91;5070449;28;20483;-68
2022/01/13 17:20:04;;;;;;;69.20;30.58;;;;;;;3.08;100.00;103881.63;5086605;28;20367;-68
2022/01/13 17:22:35;;;;;;;77.25;29.73;;;;;;;3.08;100.00;103877.22;5068607;28;20024;-68
2022/01/13 17:25:05;;;;;;;80.97;32.10;;;;;;;3.10;100.00;103877.28;5068275;28;20032;-68
2022/01/13 17:27:30;;;;;;;83.53;32.00;;;;;;;3.09;100.00;103873.75;5068623;28;20052;-68
2022/01/13 17:29:56;;;;;;;77.63;33.28;;;;;;;3.11;100.00;103877.28;5070408;28;20105;-67
2022/01/13 17:32:23;;;;;;;102.57;32.47;;;;;;;3.11;100.00;103877.28;5071663;28;20058;-68
2022/01/13 17:34:49;;;;;;;65.47;32.60;;;;;;;3.14;100.00;103887.84;5069519;28;20028;-67
2022/01/13 17:37:15;;;;;;;78.90;31.25;;;;;;;3.12;100.00;103881.69;5068950;28;20406;-68
2022/01/13 17:39:41;;;;;;;68.55;30.35;;;;;;;3.16;100.00;103890.53;5087037;28;20074;-68
2022/01/13 17:42:07;;;;;;;71.85;29.77;;;;;;;3.14;100.00;103885.22;5080523;28;20043;-68
2022/01/13 17:44:33;;;;;;;66.70;28.75;;;;;;;3.17;100.00;103887.03;5070065;28;20237;-68
2022/01/13 17:46:59;;;;;;;58.97;28.50;;;;;;;3.22;100.00;103881.84;5068906;28;20028;-68
2022/01/13 17:49:25;;;;;;;61.75;25.65;;;;;;;3.20;100.00;103884.44;5068196;28;20036;-68
2022/01/13 17:51:51;;;;;;;63.33;24.90;;;;;;;3.21;100.00;103887.94;5069493;28;20070;-68
2022/01/13 17:54:16;;;;;;;96.80;23.90;;;;;;;3.16;100.00;103882.63;5069235;28;20448;-68
2022/01/13 17:56:42;;;;;;;62.75;24.92;;;;;;;3.19;100.00;103887.94;5070237;28;20112;-68
2022/01/13 17:59:09;;;;;;;75.68;23.75;;;;;;;3.15;100.00;103879.13;5068560;28;20495;-68
2022/01/13 18:01:35;;;;;;;52.35;24.42;;;;;;;3.14;100.00;103879.97;5068858;28;20029;-68
2022/01/13 18:04:01;;;;;;;56.03;23.33;;;;;;;3.17;100.00;103887.91;5069860;28;20047;-68
2022/01/13 18:06:27;;;;;;;81.65;24.02;;;;;;;3.11;100.00;103881.66;5072471;28;20032;-67
2022/01/13 18:08:52;;;;;;;49.65;22.70;;;;;;;3.17;100.00;103885.28;5068782;28;20423;-67
2022/01/13 18:11:18;;;;;;;52.10;22.52;;;;;;;3.17;100.00;103885.28;5070066;28;20025;-68
2022/01/13 18:13:43;;;;;;;50.53;21.73;;;;;;;3.17;100.00;103884.41;5069286;28;20399;-68
2022/01/13 18:16:09;;;;;;;44.47;21.80;;;;;;;3.19;100.00;103885.31;5087999;28;20048;-68
2022/01/13 18:18:35;;;;;;;59.00;23.00;;;;;;;3.11;100.00;103869.41;5072791;28;20031;-68
2022/01/13 18:21:00;;;;;;;66.80;24.00;;;;;;;3.13;100.00;103875.56;5073248;28;20071;-68
2022/01/13 18:23:26;;;;;;;73.18;24.52;;;;;;;3.13;100.00;103867.69;5074072;28;20452;-68
2022/01/13 18:25:52;;;;;;;64.95;22.23;;;;;;;3.11;100.00;103873.78;5074974;28;20086;-68
2022/01/13 18:28:18;;;;;;;49.92;23.15;;;;;;;3.14;100.00;103868.56;5073329;28;21241;-67
2022/01/13 18:30:44;;;;;;;63.30;22.40;;;;;;;3.10;100.00;103866.75;5074111;28;20055;-68
2022/01/13 18:33:09;;;;;;;60.28;22.90;;;;;;;3.06;100.00;103859.66;5074787;28;20050;-67
2022/01/13 18:35:35;;;;;;;76.80;23.38;;;;;;;3.04;100.00;103857.00;5075105;28;20438;-67
2022/01/13 18:38:08;;;;;;;63.55;21.92;;;;;;;3.11;100.00;103850.09;5074249;28;20107;-67
2022/01/13 18:40:34;;;;;;;71.15;23.40;;;;;;;2.99;100.00;103842.91;5076349;28;20025;-68
2022/01/13 18:43:00;;;;;;;65.50;22.48;;;;;;;2.98;100.00;103842.88;5074382;28;20111;-67
2022/01/13 18:45:26;;;;;;;60.00;23.73;;;;;;;2.98;100.00;103842.88;5076659;28;20107;-68
2022/01/13 18:48:00;;;;;;;78.05;23.25;;;;;;;2.96;100.00;103843.72;5074279;28;20036;-68
2022/01/13 18:50:29;;;;;;;61.75;22.25;;;;;;;2.90;100.00;103841.00;5074167;28;20028;-68
2022/01/13 18:52:57;;;;;;;79.57;22.67;;;;;;;2.90;100.00;103835.75;5076207;28;20119;-67
2022/01/13 18:55:22;;;;;;;65.70;22.60;;;;;;;2.87;100.00;103846.19;5073407;28;20040;-68
2022/01/13 18:57:47;;;;;;;66.00;21.95;;;;;;;2.81;100.00;103834.72;5072532;28;20048;-68
2022/01/13 19:00:14;;;;;;;54.13;22.98;;;;;;;2.85;100.00;103847.03;5074944;28;20049;-68
2022/01/13 19:02:40;;;;;;;76.55;22.83;;;;;;;2.81;100.00;103846.09;5074168;28;20032;-68
2022/01/13 19:05:09;;;;;;;55.95;22.63;;;;;;;2.86;100.00;103840.94;5072531;28;20020;-68
2022/01/13 19:07:34;;;;;;;56.92;24.15;;;;;;;2.80;100.00;103836.47;5073848;28;20502;-67
2022/01/13 19:09:59;;;;;;;59.35;23.55;;;;;;;2.79;100.00;103828.53;5077986;28;20028;-68
2022/01/13 19:12:25;;;;;;;58.78;23.13;;;;;;;2.79;100.00;103836.41;5073810;28;20024;-68
2022/01/13 19:14:53;;;;;;;57.28;23.42;;;;;;;2.81;100.00;103832.97;5072991;28;20119;-68
2022/01/13 19:17:31;;;;;;;57.47;23.13;;;;;;;2.75;100.00;103816.22;5070138;28;20148;-68
2022/01/13 19:19:59;;;;;;;62.75;24.70;;;;;;;2.80;100.00;103825.94;5072291;28;20036;-68
2022/01/13 19:22:25;;;;;;;61.60;22.98;;;;;;;2.81;100.00;103822.44;5071301;28;20038;-68
2022/01/13 19:24:50;;;;;;;47.08;24.65;;;;;;;2.86;100.00;103820.78;5055027;28;20539;-68
2022/01/13 19:27:16;;;;;;;48.67;24.60;;;;;;;2.90;100.00;103822.59;5072350;28;20024;-68
2022/01/13 19:29:42;;;;;;;78.28;26.02;;;;;;;2.85;100.00;103824.25;5073341;28;20024;-68
2022/01/13 19:32:07;;;;;;;46.42;25.33;;;;;;;2.88;100.00;103821.72;5071647;28;20497;-69
2022/01/13 19:34:33;;;;;;;54.97;23.27;;;;;;;2.85;100.00;103819.00;5071231;28;20363;-68
2022/01/13 19:36:58;;;;;;;50.15;24.67;;;;;;;2.87;100.00;103825.19;5072499;28;20447;-69
2022/01/13 19:39:24;;;;;;;78.35;24.17;;;;;;;2.85;100.00;103820.75;5074872;28;20040;-68
2022/01/13 19:41:52;;;;;;;56.90;23.50;;;;;;;2.84;99.79;103826.88;5073171;28;20503;-68
2022/01/13 19:44:17;;;;;;;62.65;22.98;;;;;;;2.79;100.00;103821.53;5073180;28;20032;-68
2022/01/13 19:46:42;;;;;;;42.03;23.95;;;;;;;2.85;100.00;103823.38;5071028;28;20426;-68
2022/01/13 19:49:08;;;;;;;50.42;23.73;;;;;;;2.86;100.00;103827.78;5071681;28;20542;-68
2022/01/13 19:51:36;;;;;;;75.55;25.23;;;;;;;2.83;100.00;103825.13;5072791;28;20054;-69
2022/01/13 19:54:02;;;;;;;57.77;24.60;;;;;;;2.82;100.00;103820.69;5071762;28;20025;-68
2022/01/13 19:56:27;;;;;;;61.87;23.77;;;;;;;2.80;100.00;103820.69;5071992;28;20047;-69
2022/01/13 19:58:53;;;;;;;55.90;23.13;;;;;;;2.85;100.00;103828.63;5072330;28;20072;-69
2022/01/13 20:01:18;;;;;;;50.28;23.08;;;;;;;2.81;100.00;103813.69;5072747;28;20055;-68
2022/01/13 20:03:47;;;;;;;61.17;24.33;;;;;;;2.83;100.00;103812.84;5072633;28;20048;-68
2022/01/13 20:06:13;;;;;;;58.40;24.27;;;;;;;2.81;99.88;103814.56;5071410;28;20024;-68
2022/01/13 20:08:38;;;;;;;61.90;23.13;;;;;;;2.77;100.00;103810.13;5071499;28;20033;-68
2022/01/13 20:11:04;;;;;;;61.63;23.83;;;;;;;2.81;100.00;103811.06;5071002;28;20032;-68
2022/01/13 20:13:33;;;;;;;53.43;23.27;;;;;;;2.71;99.91;103804.75;5071265;28;20032;-69
2022/01/13 20:15:59;;;;;;;66.70;23.63;;;;;;;2.75;99.74;103809.19;5071930;28;20028;-68
2022/01/13 20:18:25;;;;;;;64.15;24.73;;;;;;;2.69;100.00;103802.09;5080347;28;20024;-68
2022/01/13 20:20:50;;;;;;;49.47;23.30;;;;;;;2.73;100.00;103817.03;5091587;28;20165;-67
2022/01/13 20:23:18;;;;;;;65.70;22.50;;;;;;;2.75;99.66;103816.22;5077272;28;20037;-67
2022/01/13 20:25:44;;;;;;;40.87;22.57;;;;;;;2.69;100.00;103814.34;5071559;28;20066;-67
2022/01/13 20:28:10;;;;;;;53.00;22.17;;;;;;;2.67;100.00;103803.78;5072288;28;20395;-67
2022/01/13 20:30:37;;;;;;;72.47;22.30;;;;;;;2.75;99.51;103814.47;5072020;28;20039;-67
2022/01/13 20:33:04;;;;;;;58.10;22.97;;;;;;;2.66;99.90;103814.31;5071633;28;20403;-67
2022/01/13 20:35:33;;;;;;;46.70;22.88;;;;;;;2.63;100.00;103812.50;5071400;28;20435;-67
2022/01/13 20:37:59;;;;;;;60.85;26.05;;;;;;;2.64;100.00;103811.63;5070179;28;20027;-67
2022/01/13 20:40:25;;;;;;;66.32;25.58;;;;;;;2.68;100.00;103823.09;5071129;28;20457;-68
2022/01/13 20:42:52;;;;;;;55.80;25.77;;;;;;;2.62;99.81;103816.00;5071764;28;20029;-67
2022/01/13 20:45:18;;;;;;;73.00;26.80;;;;;;;2.65;100.00;103823.94;5070289;28;20028;-67
2022/01/13 20:47:45;;;;;;;89.13;28.63;;;;;;;2.61;100.00;103811.56;5071139;28;20479;-67
2022/01/13 20:50:11;;;;;;;62.53;29.00;;;;;;;2.62;99.70;103809.84;5070603;28;20368;-67
2022/01/13 20:52:36;;;;;;;80.10;29.50;;;;;;;2.64;100.00;103821.25;5070835;28;20123;-67
2022/01/13 20:55:05;;;;;;;75.20;31.13;;;;;;;2.62;100.00;103821.25;5070920;28;20052;-67
2022/01/13 20:57:31;;;;;;;71.50;29.37;;;;;;;2.64;99.96;103821.25;5071416;28;20127;-67
2022/01/13 21:00:00;;;;;;;75.75;27.38;;;;;;;2.59;100.00;103828.16;5077359;28;20111;-67
2022/01/13 21:02:26;;;;;;;73.63;28.93;;;;;;;2.64;100.00;103818.63;5071995;28;20039;-67
2022/01/13 21:04:53;;;;;;;70.22;29.25;;;;;;;2.60;100.00;103806.31;5071809;28;20279;-67
2022/01/13 21:07:19;;;;;;;69.28;29.95;;;;;;;2.61;100.00;103801.06;5085815;28;20033;-67
2022/01/13 21:09:44;;;;;;;64.28;28.13;;;;;;;2.67;100.00;103811.69;5084044;28;20036;-67
2022/01/13 21:12:09;;;;;;;61.97;28.83;;;;;;;2.66;100.00;103809.91;5089949;28;20478;-67
2022/01/13 21:14:35;;;;;;;95.82;28.25;;;;;;;2.67;99.79;103819.56;5078914;28;20035;-67
2022/01/13 21:17:00;;;;;;;64.22;27.60;;;;;;;2.65;99.82;103813.41;5082730;28;20047;-67
2022/01/13 21:19:26;;;;;;;59.10;26.30;;;;;;;2.68;100.00;103809.97;5070191;28;20063;-67